JQ1YUX-13 Tokyo Ota-ku JP current weather conditions

sailwx.info

Wind from 029

Air temperature 7.8° C
Dewpoint -2.5° C

Last reported at 2017-Feb-24 09:54 UTC.
Time now 2017-Feb-24 10:35 UTC

Location: N 35°35' E 139°40'.
View on Google Maps.

See reports from other nearby stations

  
Tides and Currents Weather Stations Pressure Air Temp Water Temp Dewpoint Dewpoint Depression Visibility Wind Speed Wind Dir Waves Ship Positions
date/time (UTC)wind fromknots sea level pressurealtimeterstation pressurevisibilityair tempwater tempwave heightnotes
2017-Feb-24 09:54 029 7.8
2017-Feb-24 09:24 037 0 gusting 3 8.3
2017-Feb-24 08:54 028 4 gusting 6 8.3
2017-Feb-24 08:24 018 0 gusting 5 8.3
2017-Feb-24 07:54 037 1 gusting 4 8.9
2017-Feb-24 07:24 341 10.0
2017-Feb-24 07:20 341 1 gusting 6 10.0
2017-Feb-24 07:04 327 4 gusting 8 10.6
2017-Feb-24 06:34 009 10.0
2017-Feb-24 06:04 10.6
2017-Feb-24 05:34 274 1 gusting 3 10.0
2017-Feb-24 05:04 328 5 gusting 7 10.6
2017-Feb-24 04:34 026 1 gusting 7 10.0
2017-Feb-24 04:04 029 4 gusting 8 10.0
2017-Feb-24 03:34 296 2 gusting 4 9.4
2017-Feb-24 03:04 334 3 gusting 7 9.4
2017-Feb-24 02:34 355 2 gusting 10 8.9
2017-Feb-24 02:04 026 1 gusting 11 8.3
2017-Feb-24 01:34 330 4 gusting 10 7.8
2017-Feb-24 01:04 345 2 gusting 7 6.7
2017-Feb-24 00:34 009 6 gusting 12 6.7
2017-Feb-24 00:04 005 2 gusting 10 5.6
2017-Feb-23 23:34 032 3 gusting 11 5.6
2017-Feb-23 23:04 028 3 gusting 5 5.0
2017-Feb-23 22:34 010 4 gusting 8 5.0
2017-Feb-23 22:04 011 4 gusting 12 5.6
2017-Feb-23 21:34 340 6 gusting 6 5.6
2017-Feb-23 21:04 331 4 gusting 11 5.6
2017-Feb-23 20:34 6.1
2017-Feb-23 20:04 315 2 gusting 6 6.1
2017-Feb-23 19:34 010 5 gusting 9 6.7
2017-Feb-23 19:04 355 2 gusting 6 6.7
2017-Feb-23 18:34 022 2 gusting 6 7.2
2017-Feb-23 18:04 337 2 gusting 6 7.8
2017-Feb-23 17:34 041 3 gusting 8 7.8
2017-Feb-23 17:04 345 7 gusting 10 7.8
2017-Feb-23 16:34 8.3
2017-Feb-23 16:04 342 5 gusting 12 8.3
2017-Feb-23 15:34 037 3 gusting 8 8.3
2017-Feb-23 15:04 342 4 gusting 8 8.9
2017-Feb-23 14:34 355 4 gusting 9 9.4
2017-Feb-23 14:04 331 4 gusting 10 10.0
2017-Feb-23 13:34 345 2 gusting 9 10.6
2017-Feb-23 13:04 346 4 gusting 8 11.1
2017-Feb-23 12:34 317 5 gusting 15 11.7
2017-Feb-23 12:04 12.2
2017-Feb-23 11:34 355 6 gusting 13 12.8
2017-Feb-23 11:04 032 5 gusting 11 13.3
2017-Feb-23 10:34 025 6 gusting 9 14.4
2017-Feb-23 10:04 337 5 gusting 10 15.0
2017-Feb-23 09:34 15.6
2017-Feb-23 09:04 022 15.6
2017-Feb-23 08:34 022 0 gusting 0 16.1
2017-Feb-23 08:04 028 0 gusting 0 16.7
2017-Feb-23 07:34 180 16.7
2017-Feb-23 07:04 026 17.2
2017-Feb-23 06:34 013 16.7
2017-Feb-23 06:04 338 16.7
2017-Feb-23 05:34 295 15.0
2017-Feb-23 05:04 011 13.3
2017-Feb-23 04:34 330 0 gusting 1 11.7
2017-Feb-23 04:04 331 10.6
2017-Feb-23 03:34 10.0
2017-Feb-23 03:04 283 10.0
2017-Feb-23 02:34 198 0 gusting 8 16.1
2017-Feb-23 02:04 227 5 gusting 16 15.6
2017-Feb-23 01:34 196 5 gusting 10 15.0
2017-Feb-23 01:04 199 1 gusting 6 14.4
2017-Feb-23 00:34 207 2 gusting 10 14.4
2017-Feb-23 00:04 205 3 gusting 6 14.4
2017-Feb-22 23:34 216 1 gusting 6 14.4
2017-Feb-22 23:04 194 1 gusting 13 13.9
2017-Feb-22 22:34 244 4 gusting 10 13.9
2017-Feb-22 22:04 198 6 gusting 12 13.9
2017-Feb-22 21:34 215 4 gusting 10 13.3
2017-Feb-22 21:04 179 4 gusting 12 12.8
2017-Feb-22 20:34 225 4 gusting 8 12.2
2017-Feb-22 20:04 160 5 gusting 15 11.7
2017-Feb-22 19:34 217 0 gusting 1 11.1
2017-Feb-22 19:04 223 0 gusting 3 11.1
2017-Feb-22 18:34 200 0 gusting 3 11.1
2017-Feb-22 18:04 171 0 gusting 1 11.1
2017-Feb-22 17:34 244 2 gusting 5 11.1
2017-Feb-22 17:04 222 0 gusting 5 10.6
2017-Feb-22 16:34 212 1 gusting 6 10.6
2017-Feb-22 16:04 254 2 gusting 9 10.6
2017-Feb-22 15:34 210 0 gusting 0 10.6
2017-Feb-22 15:04 285 2 gusting 12 10.6
2017-Feb-22 14:34 232 2 gusting 3 10.6
2017-Feb-22 14:04 229 0 gusting 3 10.0
2017-Feb-22 13:34 217 4 gusting 5 10.0
2017-Feb-22 13:04 213 0 gusting 5 10.6
2017-Feb-22 12:34 211 2 gusting 6 10.6
2017-Feb-22 12:04 207 1 gusting 4 10.6
2017-Feb-22 11:34 205 1 gusting 4 10.6
2017-Feb-22 11:04 185 10.0
2017-Feb-22 10:34 199 0 gusting 2 10.0
2017-Feb-22 10:04 167 10.0